Time;durP1;ratioP1;P1;durP2;ratioP2;P2;SDS_P1;SDS_P2;PMS_P1;PMS_P2;Temp;Humidity;BMP_temperature;BMP_pressure;BME280_temperature;BME280_humidity;BME280_pressure;Samples;Min_cycle;Max_cycle;Signal;HPM_P1;HPM_P2
2022/02/28 00:02:09;;;;;;;27.38;13.57;;;;;;;-0.58;100.00;102900.81;5074135;28;20021;-69
2022/02/28 00:04:34;;;;;;;27.20;13.93;;;;;;;-0.49;100.00;102893.75;5073913;28;20028;-68
2022/02/28 00:07:00;;;;;;;28.33;14.30;;;;;;;-0.41;100.00;102890.09;5074130;28;20127;-70
2022/02/28 00:09:25;;;;;;;27.27;13.57;;;;;;;-0.37;100.00;102897.34;5074154;28;20556;-70
2022/02/28 00:11:51;;;;;;;27.33;13.85;;;;;;;-0.40;100.00;102894.50;5074416;28;20451;-70
2022/02/28 00:14:16;;;;;;;27.92;13.40;;;;;;;-0.24;100.00;102895.75;5074391;28;20111;-71
2022/02/28 00:16:41;;;;;;;27.48;13.55;;;;;;;-0.40;100.00;102894.50;5074029;28;20028;-70
2022/02/28 00:19:07;;;;;;;27.10;13.80;;;;;;;-0.39;100.00;102892.84;5074177;28;20032;-70
2022/02/28 00:21:33;;;;;;;26.73;14.45;;;;;;;-0.54;100.00;102897.66;5074065;28;20071;-70
2022/02/28 00:23:59;;;;;;;26.50;14.90;;;;;;;-0.49;100.00;102892.88;5073931;28;20024;-70
2022/02/28 00:26:24;;;;;;;27.50;14.73;;;;;;;-0.48;100.00;102892.06;5074100;28;20037;-69
2022/02/28 00:28:50;;;;;;;26.67;13.90;;;;;;;-0.51;100.00;102890.13;5074033;28;20023;-70
2022/02/28 00:31:15;;;;;;;27.20;13.88;;;;;;;-0.55;100.00;102890.66;5073885;28;20482;-69
2022/02/28 00:33:41;;;;;;;27.63;13.60;;;;;;;-0.62;100.00;102889.25;5073928;28;20032;-70
2022/02/28 00:36:06;;;;;;;26.92;13.38;;;;;;;-0.60;100.00;102890.25;5073667;28;20051;-70
2022/02/28 00:38:33;;;;;;;27.10;12.80;;;;;;;-0.45;100.00;102892.31;5073966;28;20379;-70
2022/02/28 00:40:58;;;;;;;26.85;12.80;;;;;;;-0.25;100.00;102889.66;5070324;28;20071;-69
2022/02/28 00:43:24;;;;;;;26.30;13.00;;;;;;;-0.15;100.00;102890.41;5072208;28;20060;-68
2022/02/28 00:45:49;;;;;;;25.98;12.00;;;;;;;-0.06;100.00;102880.72;5073790;28;20070;-69
2022/02/28 00:48:15;;;;;;;25.60;11.52;;;;;;;0.01;100.00;102887.34;5073483;28;20035;-69
2022/02/28 00:50:40;;;;;;;25.90;11.60;;;;;;;0.04;100.00;102895.38;5069037;28;20045;-69
2022/02/28 00:53:05;;;;;;;25.35;11.23;;;;;;;0.01;100.00;102895.13;5073526;28;20028;-69
2022/02/28 00:55:31;;;;;;;23.77;11.05;;;;;;;0.02;100.00;102894.38;5073220;28;20104;-70
2022/02/28 00:57:56;;;;;;;24.88;10.73;;;;;;;0.05;100.00;102892.91;5073192;28;20028;-69
2022/02/28 01:00:21;;;;;;;24.80;11.43;;;;;;;-0.01;100.00;102890.72;5073405;28;20025;-69
2022/02/28 01:02:47;;;;;;;25.30;11.27;;;;;;;-0.06;100.00;102896.31;5072906;28;20527;-69
2022/02/28 01:05:14;;;;;;;23.90;10.95;;;;;;;-0.06;100.00;102901.53;5073003;28;20032;-69
2022/02/28 01:07:40;;;;;;;23.33;11.02;;;;;;;-0.22;100.00;102896.78;5073260;28;20075;-69
2022/02/28 01:10:08;;;;;;;24.42;10.52;;;;;;;-0.23;100.00;102890.69;5072974;28;20028;-69
2022/02/28 01:12:34;;;;;;;23.98;10.63;;;;;;;-0.24;100.00;102890.56;5072862;28;20040;-69
2022/02/28 01:15:00;;;;;;;25.52;10.95;;;;;;;-0.22;100.00;102888.97;5072823;28;20017;-69
2022/02/28 01:17:25;;;;;;;24.35;11.15;;;;;;;-0.21;100.00;102888.22;5072337;28;20033;-69
2022/02/28 01:19:50;;;;;;;24.23;10.93;;;;;;;-0.44;100.00;102892.44;5073184;28;20028;-69
2022/02/28 01:22:16;;;;;;;24.45;10.70;;;;;;;-0.47;100.00;102886.97;5073134;28;20044;-69
2022/02/28 01:24:41;;;;;;;24.90;10.93;;;;;;;-0.50;100.00;102886.72;5072876;28;20103;-69
2022/02/28 01:27:07;;;;;;;24.50;11.07;;;;;;;-0.68;100.00;102887.81;5072795;28;20031;-70
2022/02/28 01:29:33;;;;;;;24.00;10.70;;;;;;;-0.56;100.00;102891.44;5072805;28;20112;-70
2022/02/28 01:31:59;;;;;;;25.27;11.32;;;;;;;-0.55;100.00;102890.66;5073060;28;20016;-70
2022/02/28 01:34:25;;;;;;;23.60;10.63;;;;;;;-0.57;100.00;102885.34;5072898;28;20029;-70
2022/02/28 01:36:50;;;;;;;25.08;10.40;;;;;;;-0.63;100.00;102889.13;5072748;28;20048;-70
2022/02/28 01:39:15;;;;;;;24.05;10.23;;;;;;;-0.61;100.00;102883.28;5072932;28;20095;-70
2022/02/28 01:41:41;;;;;;;24.42;10.70;;;;;;;-0.66;100.00;102879.38;5072728;28;20375;-70
2022/02/28 01:44:08;;;;;;;23.10;10.60;;;;;;;-0.67;100.00;102882.78;5072884;28;20035;-70
2022/02/28 01:46:34;;;;;;;23.95;10.63;;;;;;;-0.64;100.00;102877.81;5072450;28;20044;-70
2022/02/28 01:49:00;;;;;;;25.17;10.75;;;;;;;-0.66;100.00;102875.88;5072726;28;20495;-69
2022/02/28 01:51:25;;;;;;;24.55;10.73;;;;;;;-0.63;100.00;102876.13;5072574;28;20032;-69
2022/02/28 01:53:51;;;;;;;23.83;10.13;;;;;;;-0.60;100.00;102878.97;5072456;28;20063;-70
2022/02/28 01:56:16;;;;;;;24.08;10.38;;;;;;;-0.62;100.00;102880.56;5072746;28;20028;-69
2022/02/28 01:58:42;;;;;;;25.05;10.48;;;;;;;-0.64;100.00;102880.44;5072316;28;20029;-70
2022/02/28 02:01:08;;;;;;;25.63;10.18;;;;;;;-0.61;100.00;102878.06;5072250;28;20024;-70
2022/02/28 02:03:33;;;;;;;25.40;10.73;;;;;;;-0.65;100.00;102886.41;5072448;28;20126;-69
2022/02/28 02:05:59;;;;;;;24.17;10.55;;;;;;;-0.75;100.00;102892.50;5072331;28;20025;-70
2022/02/28 02:08:26;;;;;;;24.23;10.80;;;;;;;-0.83;100.00;102885.78;5072475;28;20064;-70
2022/02/28 02:10:52;;;;;;;24.60;11.00;;;;;;;-0.89;100.00;102890.44;5072538;28;20025;-70
2022/02/28 02:13:17;;;;;;;24.23;10.60;;;;;;;-0.96;100.00;102893.31;5072155;28;20029;-70
2022/02/28 02:15:43;;;;;;;24.63;10.70;;;;;;;-1.09;100.00;102889.69;5072456;28;20111;-70
2022/02/28 02:18:08;;;;;;;23.70;10.77;;;;;;;-1.15;100.00;102885.66;5072372;28;20048;-70
2022/02/28 02:20:38;;;;;;;23.48;10.70;;;;;;;-1.27;100.00;102890.72;5072301;28;20097;-70
2022/02/28 02:23:07;;;;;;;23.17;10.30;;;;;;;-1.47;100.00;102891.59;5072475;28;20043;-70
2022/02/28 02:25:36;;;;;;;25.23;11.10;;;;;;;-1.40;100.00;102888.78;5072368;28;20024;-69
2022/02/28 02:28:04;;;;;;;23.20;10.27;;;;;;;-1.21;100.00;102885.16;5074685;28;20029;-69
2022/02/28 02:30:30;;;;;;;24.02;10.38;;;;;;;-1.14;100.00;102882.28;5076441;28;20406;-69
2022/02/28 02:32:55;;;;;;;24.30;10.10;;;;;;;-1.12;100.00;102875.53;5076615;28;20036;-70
2022/02/28 02:35:21;;;;;;;24.00;9.95;;;;;;;-1.13;100.00;102871.16;5076115;28;20040;-69
2022/02/28 02:37:46;;;;;;;24.73;10.10;;;;;;;-1.18;100.00;102883.75;5076023;28;20106;-69
2022/02/28 02:40:13;;;;;;;23.10;10.23;;;;;;;-1.30;100.00;102878.38;5076219;28;20048;-69
2022/02/28 02:42:38;;;;;;;24.40;10.27;;;;;;;-1.28;100.00;102866.47;5075700;28;20032;-69
2022/02/28 02:45:04;;;;;;;24.75;10.60;;;;;;;-1.27;100.00;102865.69;5076288;28;20028;-70
2022/02/28 02:47:29;;;;;;;23.02;9.73;;;;;;;-1.26;100.00;102864.91;5075802;28;20060;-69
2022/02/28 02:49:55;;;;;;;25.38;10.00;;;;;;;-1.27;100.00;102859.59;5075691;28;20473;-69
2022/02/28 02:52:20;;;;;;;24.50;10.27;;;;;;;-1.25;100.00;102861.53;5076205;28;20032;-69
2022/02/28 02:54:45;;;;;;;23.77;10.43;;;;;;;-1.30;100.00;102865.41;5075592;28;20021;-69
2022/02/28 02:57:11;;;;;;;23.25;10.50;;;;;;;-1.35;100.00;102869.31;5075532;28;20077;-69
2022/02/28 02:59:36;;;;;;;24.65;10.43;;;;;;;-1.39;100.00;102879.31;5075621;28;20028;-69
2022/02/28 03:02:01;;;;;;;25.00;10.13;;;;;;;-1.45;100.00;102864.13;5075571;28;20033;-70
2022/02/28 03:04:27;;;;;;;25.33;10.60;;;;;;;-1.33;100.00;102864.25;5075519;28;20078;-70
2022/02/28 03:06:52;;;;;;;24.98;10.00;;;;;;;-1.32;100.00;102866.97;5075542;28;20036;-70
2022/02/28 03:09:17;;;;;;;24.20;10.30;;;;;;;-1.36;100.00;102869.19;5075452;28;20020;-70
2022/02/28 03:11:44;;;;;;;25.60;10.65;;;;;;;-1.37;100.00;102872.56;5075394;28;20070;-70
2022/02/28 03:14:11;;;;;;;22.90;9.80;;;;;;;-1.53;100.00;102875.53;5075405;28;20368;-70
2022/02/28 03:16:37;;;;;;;23.85;10.07;;;;;;;-1.62;100.00;102867.88;5074148;28;20028;-70
2022/02/28 03:19:03;;;;;;;24.95;10.52;;;;;;;-1.62;100.00;102865.28;5075226;28;20024;-69
2022/02/28 03:21:28;;;;;;;23.70;10.32;;;;;;;-1.57;100.00;102866.59;5075403;28;20033;-70
2022/02/28 03:23:54;;;;;;;24.25;10.05;;;;;;;-1.65;100.00;102867.59;5075236;28;20082;-70
2022/02/28 03:26:19;;;;;;;24.05;10.63;;;;;;;-1.71;100.00;102867.09;5074989;28;20100;-70
2022/02/28 03:28:44;;;;;;;24.13;10.85;;;;;;;-1.81;100.00;102860.19;5075557;28;20025;-69
2022/02/28 03:31:10;;;;;;;24.38;11.18;;;;;;;-1.83;100.00;102870.41;5075198;28;20375;-70
2022/02/28 03:33:35;;;;;;;24.27;10.88;;;;;;;-1.94;100.00;102863.38;5075310;28;20052;-70
2022/02/28 03:36:01;;;;;;;25.35;11.60;;;;;;;-1.97;100.00;102871.78;5075253;28;20387;-70
2022/02/28 03:38:26;;;;;;;25.35;11.23;;;;;;;-2.04;100.00;102873.72;5073931;28;20025;-70
2022/02/28 03:40:51;;;;;;;24.08;10.98;;;;;;;-2.11;100.00;102875.78;5074948;28;20024;-70
2022/02/28 03:43:17;;;;;;;25.25;11.63;;;;;;;-2.15;100.00;102872.78;5074873;28;20078;-70
2022/02/28 03:45:42;;;;;;;22.90;10.85;;;;;;;-2.22;100.00;102881.69;5074648;28;20373;-70
2022/02/28 03:48:08;;;;;;;24.10;10.85;;;;;;;-2.18;100.00;102878.59;5074936;28;20037;-70
2022/02/28 03:50:33;;;;;;;23.65;10.25;;;;;;;-2.08;100.00;102877.75;5074627;28;20052;-69
2022/02/28 03:52:59;;;;;;;25.05;10.90;;;;;;;-1.98;100.00;102869.06;5074817;28;20474;-69
2022/02/28 03:55:25;;;;;;;23.75;10.68;;;;;;;-1.90;100.00;102869.75;5075013;28;20124;-70
2022/02/28 03:57:50;;;;;;;23.40;10.35;;;;;;;-1.86;100.00;102872.75;5074850;28;20020;-69
2022/02/28 04:00:16;;;;;;;23.80;10.32;;;;;;;-1.87;100.00;102868.34;5074525;28;20024;-70
2022/02/28 04:02:41;;;;;;;24.40;10.82;;;;;;;-1.95;100.00;102864.19;5071259;28;20379;-70
2022/02/28 04:05:07;;;;;;;25.30;10.73;;;;;;;-1.97;100.00;102870.91;5074346;28;20454;-69
2022/02/28 04:07:33;;;;;;;24.58;10.50;;;;;;;-1.98;100.00;102862.22;5074657;28;20028;-69
2022/02/28 04:09:59;;;;;;;24.23;10.75;;;;;;;-2.03;100.00;102860.91;5074501;28;20098;-70
2022/02/28 04:12:25;;;;;;;23.85;10.60;;;;;;;-2.04;100.00;102865.94;5074171;28;20028;-69
2022/02/28 04:14:51;;;;;;;24.35;11.23;;;;;;;-2.22;100.00;102862.66;5074413;28;20024;-70
2022/02/28 04:17:16;;;;;;;23.17;10.80;;;;;;;-2.23;100.00;102861.72;5073949;28;20112;-70
2022/02/28 04:19:42;;;;;;;23.85;10.75;;;;;;;-2.22;100.00;102860.97;5074194;28;20056;-69
2022/02/28 04:22:07;;;;;;;24.33;10.23;;;;;;;-2.21;100.00;102864.44;5074563;28;20077;-70
2022/02/28 04:24:33;;;;;;;24.20;10.85;;;;;;;-2.27;100.00;102859.66;5073998;28;20035;-71
2022/02/28 04:26:58;;;;;;;24.92;11.30;;;;;;;-2.24;100.00;102852.16;5074027;28;20029;-70
2022/02/28 04:29:24;;;;;;;24.73;10.90;;;;;;;-2.28;100.00;102855.25;5074235;28;20029;-73
2022/02/28 04:31:50;;;;;;;23.92;10.65;;;;;;;-2.32;100.00;102846.28;5073626;28;20025;-70
2022/02/28 04:34:15;;;;;;;25.02;10.93;;;;;;;-2.30;100.00;102849.00;5073730;28;20491;-70
2022/02/28 04:36:41;;;;;;;23.60;10.57;;;;;;;-2.39;100.00;102848.19;5073897;28;20032;-71
2022/02/28 04:39:07;;;;;;;24.60;11.10;;;;;;;-2.40;100.00;102849.88;5073751;28;20036;-73
2022/02/28 04:41:32;;;;;;;24.75;11.18;;;;;;;-2.44;100.00;102857.25;5073606;28;20033;-71
2022/02/28 04:43:57;;;;;;;24.48;10.57;;;;;;;-2.46;100.00;102849.34;5073834;28;20103;-71
2022/02/28 04:46:23;;;;;;;25.25;11.02;;;;;;;-2.43;100.00;102856.47;5073821;28;20455;-71
2022/02/28 04:48:48;;;;;;;24.50;11.18;;;;;;;-2.49;100.00;102852.56;5073400;28;20048;-71
2022/02/28 04:51:13;;;;;;;25.70;11.18;;;;;;;-2.59;100.00;102851.59;5073353;28;20527;-71
2022/02/28 04:53:40;;;;;;;24.23;10.90;;;;;;;-2.62;100.00;102849.66;5073329;28;20116;-71
2022/02/28 04:56:06;;;;;;;25.40;11.65;;;;;;;-2.63;100.00;102846.13;5069795;28;20438;-72
2022/02/28 04:58:31;;;;;;;25.52;11.10;;;;;;;-2.61;100.00;102848.88;5073605;28;20025;-71
2022/02/28 05:00:57;;;;;;;25.63;11.45;;;;;;;-2.55;100.00;102846.84;5072051;28;20021;-71
2022/02/28 05:03:22;;;;;;;24.60;11.68;;;;;;;-2.51;100.00;102843.72;5072778;28;20025;-71
2022/02/28 05:05:49;;;;;;;24.85;11.38;;;;;;;-2.48;100.00;102845.69;5072069;28;20542;-71
2022/02/28 05:08:14;;;;;;;25.60;10.98;;;;;;;-2.57;100.00;102853.56;5073184;28;20040;-72
2022/02/28 05:10:39;;;;;;;25.42;11.25;;;;;;;-2.70;100.00;102859.31;5073477;28;20028;-72
2022/02/28 05:13:05;;;;;;;27.20;11.82;;;;;;;-2.64;100.00;102851.19;5072993;28;20035;-72
2022/02/28 05:15:30;;;;;;;26.42;11.90;;;;;;;-2.70;100.00;102858.41;5073134;28;20051;-70
2022/02/28 05:17:55;;;;;;;25.15;11.65;;;;;;;-2.66;100.00;102866.59;5073260;28;20104;-70
2022/02/28 05:20:21;;;;;;;25.20;11.40;;;;;;;-2.74;100.00;102862.38;5071094;28;20123;-70
2022/02/28 05:22:47;;;;;;;24.65;11.25;;;;;;;-2.83;100.00;102869.34;5073040;28;20028;-70
2022/02/28 05:25:12;;;;;;;24.60;11.30;;;;;;;-2.86;100.00;102869.06;5073251;28;20432;-70
2022/02/28 05:27:44;;;;;;;24.98;11.63;;;;;;;-2.87;100.00;102868.16;5071340;28;20123;-70
2022/02/28 05:30:11;;;;;;;26.17;12.02;;;;;;;-2.91;100.00;102868.66;5072813;28;20103;-71
2022/02/28 05:32:40;;;;;;;24.15;11.43;;;;;;;-3.00;100.00;102862.59;5072802;28;20120;-70
2022/02/28 05:35:06;;;;;;;25.58;12.27;;;;;;;-2.96;100.00;102861.22;5072569;28;20111;-69
2022/02/28 05:37:31;;;;;;;26.83;12.40;;;;;;;-2.92;100.00;102863.31;5073030;28;20024;-70
2022/02/28 05:39:56;;;;;;;25.98;12.07;;;;;;;-2.90;100.00;102869.53;5072933;28;20032;-70
2022/02/28 05:42:22;;;;;;;25.20;12.00;;;;;;;-2.93;100.00;102867.56;5072629;28;20112;-69
2022/02/28 05:44:47;;;;;;;26.30;12.07;;;;;;;-2.93;100.00;102864.97;5072664;28;20036;-70
2022/02/28 05:47:12;;;;;;;25.55;11.60;;;;;;;-2.88;100.00;102868.03;5072674;28;20491;-69
2022/02/28 05:49:38;;;;;;;24.40;11.90;;;;;;;-2.89;100.00;102874.84;5072069;28;20086;-70
2022/02/28 05:52:04;;;;;;;25.88;12.25;;;;;;;-2.93;100.00;102871.84;5072856;28;20086;-69
2022/02/28 05:54:31;;;;;;;24.35;12.35;;;;;;;-3.04;100.00;102886.41;5072794;28;20103;-70
2022/02/28 05:56:56;;;;;;;25.13;12.38;;;;;;;-3.09;100.00;102880.78;5072734;28;20469;-71
2022/02/28 05:59:21;;;;;;;27.50;13.18;;;;;;;-3.13;100.00;102889.06;5072730;28;20111;-69
2022/02/28 06:01:47;;;;;;;26.38;12.95;;;;;;;-3.13;100.00;102885.53;5071961;28;20020;-70
2022/02/28 06:04:12;;;;;;;26.48;13.23;;;;;;;-3.16;100.00;102887.09;5072392;28;20514;-70
2022/02/28 06:06:37;;;;;;;28.10;13.57;;;;;;;-3.23;100.00;102887.28;5072470;28;20367;-71
2022/02/28 06:09:04;;;;;;;26.60;13.43;;;;;;;-3.24;100.00;102892.31;5072432;28;20055;-69
2022/02/28 06:11:30;;;;;;;27.25;13.32;;;;;;;-3.14;100.00;102888.94;5072450;28;20020;-71
2022/02/28 06:13:56;;;;;;;26.77;13.02;;;;;;;-3.17;100.00;102890.44;5072612;28;20025;-69
2022/02/28 06:16:21;;;;;;;27.92;12.85;;;;;;;-3.23;100.00;102891.53;5072275;28;20079;-70
2022/02/28 06:18:47;;;;;;;27.38;12.35;;;;;;;-3.31;100.00;102888.25;5072638;28;20055;-70
2022/02/28 06:21:12;;;;;;;28.05;13.75;;;;;;;-3.34;100.00;102904.38;5072365;28;20041;-70
2022/02/28 06:23:37;;;;;;;27.60;13.25;;;;;;;-3.37;100.00;102901.50;5072253;28;20063;-70
2022/02/28 06:26:03;;;;;;;27.40;13.90;;;;;;;-3.36;100.00;102903.34;5072074;28;20025;-70
2022/02/28 06:28:32;;;;;;;27.40;14.32;;;;;;;-3.38;100.00;102906.53;5072370;28;20529;-70
2022/02/28 06:30:58;;;;;;;27.10;13.70;;;;;;;-3.37;100.00;102898.94;5067101;28;20028;-72
2022/02/28 06:33:23;;;;;;;28.60;13.65;;;;;;;-3.50;100.00;102902.03;5068248;28;20028;-71
2022/02/28 06:35:48;;;;;;;27.65;13.85;;;;;;;-3.45;100.00;102905.06;5069813;28;20029;-71
2022/02/28 06:38:16;;;;;;;27.17;13.65;;;;;;;-3.55;100.00;102903.28;5069227;28;20511;-72
2022/02/28 06:40:41;;;;;;;27.42;13.10;;;;;;;-3.51;100.00;102904.47;5070779;28;20028;-72
2022/02/28 06:43:07;;;;;;;29.75;13.98;;;;;;;-3.45;100.00;102906.72;5069171;28;20059;-72
2022/02/28 06:45:33;;;;;;;27.45;13.82;;;;;;;-3.48;100.00;102909.03;5069683;28;20024;-72
2022/02/28 06:47:58;;;;;;;27.58;13.55;;;;;;;-3.44;100.00;102911.16;5070767;28;20078;-72
2022/02/28 06:50:24;;;;;;;27.00;13.73;;;;;;;-3.41;100.00;102911.44;5070514;28;20052;-73
2022/02/28 06:52:49;;;;;;;27.50;13.68;;;;;;;-3.43;100.00;102905.22;5070416;28;20040;-73
2022/02/28 06:55:15;;;;;;;29.98;14.13;;;;;;;-3.32;100.00;102912.28;5070038;28;20055;-72
2022/02/28 06:57:40;;;;;;;28.30;14.15;;;;;;;-3.25;100.00;102912.09;5070225;28;20016;-73
2022/02/28 07:00:06;;;;;;;28.30;13.85;;;;;;;-3.17;100.00;102913.72;5070404;28;20445;-73
2022/02/28 07:02:31;;;;;;;30.30;14.45;;;;;;;-3.13;100.00;102914.00;5070627;28;20115;-72
2022/02/28 07:04:57;;;;;;;29.65;14.98;;;;;;;-3.10;100.00;102911.69;5069515;28;20013;-72
2022/02/28 07:07:22;;;;;;;28.15;14.88;;;;;;;-3.07;100.00;102917.16;5069603;28;20067;-73
2022/02/28 07:09:48;;;;;;;27.80;14.65;;;;;;;-3.02;100.00;102909.06;5070026;28;20472;-73
2022/02/28 07:12:14;;;;;;;29.58;15.43;;;;;;;-2.99;100.00;102914.50;5070462;28;20399;-72
2022/02/28 07:14:40;;;;;;;29.90;14.52;;;;;;;-2.90;100.00;102916.13;5071592;28;20017;-72
2022/02/28 07:17:06;;;;;;;27.90;14.48;;;;;;;-2.79;100.00;102917.13;5073932;28;20025;-71
2022/02/28 07:19:33;;;;;;;28.33;14.35;;;;;;;-2.69;100.00;102915.50;5073800;28;20025;-72
2022/02/28 07:21:59;;;;;;;26.83;14.43;;;;;;;-2.60;100.00;102924.91;5071274;28;20037;-73
2022/02/28 07:24:25;;;;;;;29.13;15.13;;;;;;;-2.53;100.00;102920.41;5072157;28;20126;-72
2022/02/28 07:26:50;;;;;;;29.55;16.33;;;;;;;-2.44;100.00;102922.03;5073608;28;20066;-71
2022/02/28 07:29:16;;;;;;;31.90;17.85;;;;;;;-2.32;100.00;102924.00;5073167;28;20035;-72
2022/02/28 07:31:41;;;;;;;30.50;16.60;;;;;;;-2.18;100.00;102922.66;5074125;28;20017;-71
2022/02/28 07:34:08;;;;;;;28.15;15.13;;;;;;;-2.00;100.00;102907.81;5072791;28;20544;-72
2022/02/28 07:36:34;;;;;;;29.05;14.50;;;;;;;-1.88;100.00;102920.94;5074006;28;20040;-72
2022/02/28 07:38:59;;;;;;;27.23;14.25;;;;;;;-1.64;100.00;102923.91;5073378;28;20043;-72
2022/02/28 07:41:24;;;;;;;26.45;13.18;;;;;;;-1.45;100.00;102924.69;5073282;28;20028;-73
2022/02/28 07:43:49;;;;;;;27.23;13.50;;;;;;;-1.30;100.00;102921.63;5073853;28;20027;-73
2022/02/28 07:46:15;;;;;;;26.10;13.00;;;;;;;-1.15;100.00;102922.00;5072792;28;20021;-72
2022/02/28 07:48:40;;;;;;;26.95;13.40;;;;;;;-1.00;100.00;102922.41;5073322;28;20056;-71
2022/02/28 07:51:05;;;;;;;26.83;13.35;;;;;;;-0.83;100.00;102929.94;5073274;28;20036;-72
2022/02/28 07:53:31;;;;;;;26.05;12.88;;;;;;;-0.67;100.00;102928.59;5073117;28;20100;-72
2022/02/28 07:55:56;;;;;;;26.52;13.20;;;;;;;-0.43;100.00;102929.75;5072858;28;20035;-73
2022/02/28 07:58:22;;;;;;;27.08;13.15;;;;;;;-0.21;100.00;102929.81;5072767;28;20126;-73
2022/02/28 08:00:47;;;;;;;25.58;12.95;;;;;;;-0.03;100.00;102939.09;5073300;28;20029;-72
2022/02/28 08:03:13;;;;;;;25.13;12.57;;;;;;;0.14;100.00;102940.44;5071056;28;20078;-72
2022/02/28 08:05:38;;;;;;;24.98;12.80;;;;;;;0.30;100.00;102944.28;5071723;28;20078;-72
2022/02/28 08:08:04;;;;;;;25.55;12.73;;;;;;;0.58;100.00;102946.47;5072822;28;20471;-71
2022/02/28 08:10:29;;;;;;;26.48;12.40;;;;;;;0.75;100.00;102960.81;5072632;28;20105;-73
2022/02/28 08:12:56;;;;;;;26.70;12.38;;;;;;;0.93;100.00;102959.63;5072594;28;20177;-73
2022/02/28 08:15:22;;;;;;;25.73;11.68;;;;;;;1.12;100.00;102959.38;5072361;28;20439;-73
2022/02/28 08:17:47;;;;;;;25.58;12.30;;;;;;;1.36;100.00;102962.00;5072798;28;20052;-72
2022/02/28 08:20:13;;;;;;;25.05;11.95;;;;;;;1.53;100.00;102958.03;5072409;28;20048;-73
2022/02/28 08:22:38;;;;;;;23.73;11.48;;;;;;;1.66;100.00;102950.38;5072090;28;20023;-72
2022/02/28 08:25:05;;;;;;;24.90;11.48;;;;;;;1.78;100.00;102950.38;5072280;28;20027;-72
2022/02/28 08:27:30;;;;;;;23.70;11.38;;;;;;;1.90;98.71;102961.69;5072330;28;20558;-71
2022/02/28 08:29:56;;;;;;;25.17;12.23;;;;;;;2.08;96.68;102959.53;5072420;28;20104;-72
2022/02/28 08:32:21;;;;;;;25.15;11.73;;;;;;;2.26;94.76;102959.94;5072747;28;20025;-72
2022/02/28 08:34:46;;;;;;;25.58;12.18;;;;;;;2.33;95.35;102956.09;5071870;28;20040;-72
2022/02/28 08:37:12;;;;;;;23.38;11.52;;;;;;;2.34;94.90;102957.88;5072312;28;20033;-71
2022/02/28 08:39:37;;;;;;;23.90;11.32;;;;;;;2.33;93.90;102952.56;5072258;28;20024;-71
2022/02/28 08:42:03;;;;;;;26.00;11.63;;;;;;;2.42;95.33;102956.72;5069136;28;20028;-70
2022/02/28 08:44:29;;;;;;;24.60;11.48;;;;;;;2.48;92.49;102953.66;5071416;28;20111;-70
2022/02/28 08:46:54;;;;;;;24.20;11.25;;;;;;;2.59;90.90;102957.00;5071964;28;20032;-71
2022/02/28 08:49:19;;;;;;;23.85;11.43;;;;;;;2.79;93.07;102945.34;5071972;28;20093;-70
2022/02/28 08:51:45;;;;;;;24.65;11.60;;;;;;;3.02;87.15;102949.56;5070689;28;20047;-70
2022/02/28 08:54:11;;;;;;;24.10;11.68;;;;;;;3.28;88.02;102947.84;5070759;28;20071;-70
2022/02/28 08:56:37;;;;;;;22.83;11.02;;;;;;;3.49;84.66;102935.28;5072095;28;20460;-71
2022/02/28 08:59:02;;;;;;;23.63;10.90;;;;;;;3.59;83.15;102939.41;5071660;28;20548;-71
2022/02/28 09:01:27;;;;;;;24.52;11.38;;;;;;;3.68;83.18;102934.78;5071771;28;20516;-71
2022/02/28 09:03:53;;;;;;;25.02;11.43;;;;;;;3.83;82.52;102942.75;5071632;28;20021;-71
2022/02/28 09:06:18;;;;;;;25.00;11.10;;;;;;;3.99;81.19;102942.00;5071876;28;20024;-71
2022/02/28 09:08:44;;;;;;;25.15;11.18;;;;;;;4.27;83.22;102930.72;5071859;28;20474;-72
2022/02/28 09:11:09;;;;;;;24.02;11.63;;;;;;;4.68;79.48;102935.00;5073051;28;20107;-71
2022/02/28 09:13:35;;;;;;;23.92;10.88;;;;;;;4.88;75.00;102937.13;5073402;28;20464;-71
2022/02/28 09:16:01;;;;;;;23.55;11.23;;;;;;;5.03;75.78;102936.25;5072973;28;20475;-71
2022/02/28 09:18:27;;;;;;;23.80;11.05;;;;;;;5.03;74.90;102936.25;5072919;28;20029;-71
2022/02/28 09:20:52;;;;;;;22.60;10.90;;;;;;;5.05;72.65;102929.38;5073167;28;20028;-71
2022/02/28 09:23:17;;;;;;;23.50;10.93;;;;;;;5.01;70.36;102933.56;5072836;28;20514;-70
2022/02/28 09:25:43;;;;;;;23.95;10.98;;;;;;;4.95;68.67;102927.94;5072810;28;20048;-70
2022/02/28 09:28:08;;;;;;;23.20;10.90;;;;;;;5.29;71.33;102929.94;5072733;28;20055;-70
2022/02/28 09:30:33;;;;;;;23.05;10.55;;;;;;;5.74;65.23;102928.19;5072688;28;20999;-69
2022/02/28 09:32:59;;;;;;;22.85;10.52;;;;;;;6.02;64.73;102924.53;5072922;28;20021;-72
2022/02/28 09:35:24;;;;;;;23.08;10.50;;;;;;;6.09;64.72;102923.19;5072820;28;20111;-70
2022/02/28 09:37:50;;;;;;;24.77;10.40;;;;;;;6.02;62.56;102931.53;5071896;28;20034;-69
2022/02/28 09:40:16;;;;;;;22.15;10.35;;;;;;;6.07;63.94;102937.94;5072803;28;20021;-70
2022/02/28 09:42:43;;;;;;;22.77;10.38;;;;;;;6.30;60.40;102933.06;5072322;28;20066;-70
2022/02/28 09:45:08;;;;;;;23.15;10.23;;;;;;;6.40;58.84;102915.25;5072390;28;20036;-69
2022/02/28 09:47:35;;;;;;;22.98;10.07;;;;;;;6.68;59.34;102908.84;5072617;28;20037;-70
2022/02/28 09:50:00;;;;;;;24.30;10.38;;;;;;;6.91;56.76;102910.06;5072405;28;20041;-70
2022/02/28 09:52:26;;;;;;;21.70;9.80;;;;;;;7.21;56.35;102920.38;5072837;28;20027;-69
2022/02/28 09:54:52;;;;;;;23.70;10.82;;;;;;;7.39;57.53;102904.63;5072707;28;20028;-70
2022/02/28 09:57:21;;;;;;;22.80;10.13;;;;;;;7.62;54.10;102899.59;5072527;28;20498;-70
2022/02/28 09:59:46;;;;;;;23.15;9.68;;;;;;;8.19;53.90;102891.78;5070997;28;20036;-70
2022/02/28 10:02:13;;;;;;;23.15;10.43;;;;;;;8.65;49.08;102893.94;5072798;28;20029;-70
2022/02/28 10:04:39;;;;;;;21.90;9.55;;;;;;;9.21;47.63;102893.69;5072397;28;20024;-71
2022/02/28 10:07:30;;;;;;;23.05;9.90;;;;;;;9.84;42.31;102890.09;5072086;28;20078;-71
2022/02/28 10:10:10;;;;;;;21.55;9.07;;;;;;;10.00;43.36;102887.22;5069269;28;20044;-71
2022/02/28 10:12:36;;;;;;;22.17;9.48;;;;;;;10.15;41.47;102891.28;5072395;28;20103;-70
2022/02/28 10:15:08;;;;;;;25.52;9.50;;;;;;;10.41;40.97;102893.25;5072555;28;20077;-71
2022/02/28 10:17:46;;;;;;;22.63;9.80;;;;;;;10.61;41.61;102887.78;5072293;28;20424;-71
2022/02/28 10:20:15;;;;;;;21.25;9.50;;;;;;;11.29;38.59;102900.75;5068626;28;20428;-72
2022/02/28 10:22:41;;;;;;;22.30;9.55;;;;;;;12.09;36.56;102899.84;5068446;28;20055;-71
2022/02/28 10:25:07;;;;;;;21.40;9.40;;;;;;;12.57;35.26;102896.84;5072569;28;20021;-71
2022/02/28 10:27:32;;;;;;;22.67;8.68;;;;;;;12.62;33.22;102884.59;5072012;28;20028;-72
2022/02/28 10:29:58;;;;;;;22.42;9.48;;;;;;;12.90;34.62;102888.00;5072192;28;20025;-71
2022/02/28 10:32:27;;;;;;;21.30;9.43;;;;;;;13.30;32.69;102886.41;5072320;28;20047;-72
2022/02/28 10:37:44;;;;;;;21.25;8.88;;;;;;;13.50;32.58;102875.41;5068959;28;20036;-71
2022/02/28 10:40:10;;;;;;;20.80;9.05;;;;;;;13.81;32.12;102876.16;5065903;28;20028;-70
2022/02/28 10:42:45;;;;;;;22.23;9.30;;;;;;;14.37;32.63;102871.19;5072200;28;20021;-70
2022/02/28 10:45:21;;;;;;;21.30;9.10;;;;;;;14.48;31.17;102877.59;5072140;28;20070;-69
2022/02/28 10:47:48;;;;;;;21.77;9.60;;;;;;;14.19;30.56;102879.66;5071704;28;20028;-70
2022/02/28 10:50:28;;;;;;;22.00;9.60;;;;;;;14.53;29.76;102872.38;5075318;28;20056;-69
2022/02/28 10:52:55;;;;;;;21.08;9.27;;;;;;;14.64;30.02;102876.19;5075622;28;20042;-70
2022/02/28 10:55:35;;;;;;;21.15;9.20;;;;;;;15.30;31.67;102878.25;5076151;28;20028;-69
2022/02/28 10:58:12;;;;;;;21.52;9.27;;;;;;;15.74;31.81;102885.16;5072696;28;20069;-70
2022/02/28 11:00:57;;;;;;;20.85;9.25;;;;;;;16.15;31.03;102882.22;5072937;28;20033;-70
2022/02/28 11:03:28;;;;;;;21.30;9.13;;;;;;;16.86;29.06;102877.72;5075544;28;20029;-69
2022/02/28 11:05:55;;;;;;;22.08;9.38;;;;;;;17.10;27.79;102879.78;5075736;28;20364;-70